sensor_id;sensor_type;location;lat;lon;timestamp;P1;durP1;ratioP1;P2;durP2;ratioP2
55222;SDS011;41090;48.632;12.428;2022-12-11T00:01:20;28.20;;;20.40;;
55222;SDS011;41090;48.632;12.428;2022-12-11T00:03:46;24.33;;;18.93;;
55222;SDS011;41090;48.632;12.428;2022-12-11T00:06:12;26.40;;;19.00;;
55222;SDS011;41090;48.632;12.428;2022-12-11T00:08:38;25.70;;;18.70;;
55222;SDS011;41090;48.632;12.428;2022-12-11T00:11:04;26.93;;;19.43;;
55222;SDS011;41090;48.632;12.428;2022-12-11T00:13:29;26.57;;;19.83;;
55222;SDS011;41090;48.632;12.428;2022-12-11T00:15:56;27.27;;;19.77;;
55222;SDS011;41090;48.632;12.428;2022-12-11T00:18:22;25.67;;;18.97;;
55222;SDS011;41090;48.632;12.428;2022-12-11T00:20:47;27.23;;;19.77;;
55222;SDS011;41090;48.632;12.428;2022-12-11T00:23:13;25.43;;;18.77;;
55222;SDS011;41090;48.632;12.428;2022-12-11T00:25:42;29.83;;;19.63;;
55222;SDS011;41090;48.632;12.428;2022-12-11T00:28:08;25.27;;;18.73;;
55222;SDS011;41090;48.632;12.428;2022-12-11T00:30:33;26.33;;;19.73;;
55222;SDS011;41090;48.632;12.428;2022-12-11T00:33:02;27.63;;;19.90;;
55222;SDS011;41090;48.632;12.428;2022-12-11T00:35:27;27.53;;;20.27;;
55222;SDS011;41090;48.632;12.428;2022-12-11T00:37:52;26.53;;;20.03;;
55222;SDS011;41090;48.632;12.428;2022-12-11T00:40:17;29.50;;;20.37;;
55222;SDS011;41090;48.632;12.428;2022-12-11T00:42:43;25.83;;;19.07;;
55222;SDS011;41090;48.632;12.428;2022-12-11T00:45:08;26.53;;;19.50;;
55222;SDS011;41090;48.632;12.428;2022-12-11T00:47:34;26.97;;;19.50;;
55222;SDS011;41090;48.632;12.428;2022-12-11T00:49:59;28.43;;;19.37;;
55222;SDS011;41090;48.632;12.428;2022-12-11T00:52:24;26.67;;;19.23;;
55222;SDS011;41090;48.632;12.428;2022-12-11T00:54:49;29.17;;;20.30;;
55222;SDS011;41090;48.632;12.428;2022-12-11T00:57:14;25.93;;;19.67;;
55222;SDS011;41090;48.632;12.428;2022-12-11T00:59:40;27.80;;;20.20;;
55222;SDS011;41090;48.632;12.428;2022-12-11T01:02:05;26.53;;;20.00;;
55222;SDS011;41090;48.632;12.428;2022-12-11T01:04:30;28.17;;;20.03;;
55222;SDS011;41090;48.632;12.428;2022-12-11T01:06:56;25.53;;;18.87;;
55222;SDS011;41090;48.632;12.428;2022-12-11T01:09:21;28.07;;;20.07;;
55222;SDS011;41090;48.632;12.428;2022-12-11T01:12:05;27.77;;;19.00;;
55222;SDS011;41090;48.632;12.428;2022-12-11T01:14:30;27.90;;;20.30;;
55222;SDS011;41090;48.632;12.428;2022-12-11T01:16:56;26.07;;;19.73;;
55222;SDS011;41090;48.632;12.428;2022-12-11T01:19:22;26.23;;;18.63;;
55222;SDS011;41090;48.632;12.428;2022-12-11T01:21:47;26.03;;;19.27;;
55222;SDS011;41090;48.632;12.428;2022-12-11T01:24:12;25.40;;;18.70;;
55222;SDS011;41090;48.632;12.428;2022-12-11T01:26:38;27.93;;;18.40;;
55222;SDS011;41090;48.632;12.428;2022-12-11T01:29:03;24.53;;;18.07;;
55222;SDS011;41090;48.632;12.428;2022-12-11T01:31:28;24.47;;;18.80;;
55222;SDS011;41090;48.632;12.428;2022-12-11T01:33:54;26.60;;;18.67;;
55222;SDS011;41090;48.632;12.428;2022-12-11T01:36:19;26.13;;;18.57;;
55222;SDS011;41090;48.632;12.428;2022-12-11T01:38:45;23.63;;;18.07;;
55222;SDS011;41090;48.632;12.428;2022-12-11T01:41:10;24.93;;;18.20;;
55222;SDS011;41090;48.632;12.428;2022-12-11T01:46:21;23.90;;;17.13;;
55222;SDS011;41090;48.632;12.428;2022-12-11T01:48:47;23.57;;;16.97;;
55222;SDS011;41090;48.632;12.428;2022-12-11T01:51:12;25.80;;;17.40;;
55222;SDS011;41090;48.632;12.428;2022-12-11T01:53:39;24.00;;;16.90;;
55222;SDS011;41090;48.632;12.428;2022-12-11T01:56:05;23.60;;;17.57;;
55222;SDS011;41090;48.632;12.428;2022-12-11T01:58:33;24.00;;;17.30;;
55222;SDS011;41090;48.632;12.428;2022-12-11T02:00:59;24.63;;;17.50;;
55222;SDS011;41090;48.632;12.428;2022-12-11T02:03:24;22.37;;;16.20;;
55222;SDS011;41090;48.632;12.428;2022-12-11T02:05:50;21.00;;;15.93;;
55222;SDS011;41090;48.632;12.428;2022-12-11T02:08:15;21.43;;;16.00;;
55222;SDS011;41090;48.632;12.428;2022-12-11T02:13:20;21.37;;;16.23;;
55222;SDS011;41090;48.632;12.428;2022-12-11T02:15:54;23.83;;;16.87;;
55222;SDS011;41090;48.632;12.428;2022-12-11T02:18:46;21.60;;;16.53;;
55222;SDS011;41090;48.632;12.428;2022-12-11T02:21:12;19.40;;;15.07;;
55222;SDS011;41090;48.632;12.428;2022-12-11T02:26:12;22.00;;;16.27;;
55222;SDS011;41090;48.632;12.428;2022-12-11T02:28:53;19.77;;;15.87;;
55222;SDS011;41090;48.632;12.428;2022-12-11T02:31:26;20.43;;;15.57;;
55222;SDS011;41090;48.632;12.428;2022-12-11T02:33:56;22.53;;;15.97;;
55222;SDS011;41090;48.632;12.428;2022-12-11T02:36:23;21.93;;;16.40;;
55222;SDS011;41090;48.632;12.428;2022-12-11T02:38:50;22.77;;;17.13;;
55222;SDS011;41090;48.632;12.428;2022-12-11T02:41:17;22.50;;;16.90;;
55222;SDS011;41090;48.632;12.428;2022-12-11T02:43:43;23.47;;;17.33;;
55222;SDS011;41090;48.632;12.428;2022-12-11T02:46:09;28.43;;;20.17;;
55222;SDS011;41090;48.632;12.428;2022-12-11T02:48:36;21.27;;;16.63;;
55222;SDS011;41090;48.632;12.428;2022-12-11T02:51:02;19.43;;;14.83;;
55222;SDS011;41090;48.632;12.428;2022-12-11T02:53:28;22.83;;;16.23;;
55222;SDS011;41090;48.632;12.428;2022-12-11T02:55:57;21.70;;;15.10;;
55222;SDS011;41090;48.632;12.428;2022-12-11T02:58:25;22.77;;;16.20;;
55222;SDS011;41090;48.632;12.428;2022-12-11T03:00:51;21.73;;;16.30;;
55222;SDS011;41090;48.632;12.428;2022-12-11T03:03:16;21.63;;;15.97;;
55222;SDS011;41090;48.632;12.428;2022-12-11T03:05:41;24.93;;;17.57;;
55222;SDS011;41090;48.632;12.428;2022-12-11T03:08:07;21.43;;;16.23;;
55222;SDS011;41090;48.632;12.428;2022-12-11T03:10:32;22.83;;;15.83;;
55222;SDS011;41090;48.632;12.428;2022-12-11T03:12:57;21.80;;;15.27;;
55222;SDS011;41090;48.632;12.428;2022-12-11T03:18:09;23.27;;;16.90;;
55222;SDS011;41090;48.632;12.428;2022-12-11T03:20:40;19.30;;;15.63;;
55222;SDS011;41090;48.632;12.428;2022-12-11T03:23:21;20.40;;;15.47;;
55222;SDS011;41090;48.632;12.428;2022-12-11T03:25:52;21.43;;;16.07;;
55222;SDS011;41090;48.632;12.428;2022-12-11T03:30:58;21.30;;;15.73;;
55222;SDS011;41090;48.632;12.428;2022-12-11T03:33:48;21.60;;;16.30;;
55222;SDS011;41090;48.632;12.428;2022-12-11T03:36:13;21.90;;;16.03;;
55222;SDS011;41090;48.632;12.428;2022-12-11T03:41:07;21.43;;;16.33;;
55222;SDS011;41090;48.632;12.428;2022-12-11T03:43:33;21.00;;;16.00;;
55222;SDS011;41090;48.632;12.428;2022-12-11T03:45:59;21.00;;;16.47;;
55222;SDS011;41090;48.632;12.428;2022-12-11T03:48:27;21.70;;;16.80;;
55222;SDS011;41090;48.632;12.428;2022-12-11T03:50:53;22.17;;;16.43;;
55222;SDS011;41090;48.632;12.428;2022-12-11T03:53:19;21.37;;;16.37;;
55222;SDS011;41090;48.632;12.428;2022-12-11T03:55:45;20.47;;;16.10;;
55222;SDS011;41090;48.632;12.428;2022-12-11T03:58:12;21.40;;;16.70;;
55222;SDS011;41090;48.632;12.428;2022-12-11T04:00:38;22.87;;;16.87;;
55222;SDS011;41090;48.632;12.428;2022-12-11T04:03:03;22.57;;;16.63;;
55222;SDS011;41090;48.632;12.428;2022-12-11T04:05:38;22.00;;;17.03;;
55222;SDS011;41090;48.632;12.428;2022-12-11T04:08:04;24.20;;;17.40;;
55222;SDS011;41090;48.632;12.428;2022-12-11T04:10:29;23.53;;;17.23;;
55222;SDS011;41090;48.632;12.428;2022-12-11T04:12:54;22.27;;;16.87;;
55222;SDS011;41090;48.632;12.428;2022-12-11T04:15:19;22.63;;;16.93;;
55222;SDS011;41090;48.632;12.428;2022-12-11T04:17:45;22.40;;;16.63;;
55222;SDS011;41090;48.632;12.428;2022-12-11T04:20:29;26.27;;;17.57;;
55222;SDS011;41090;48.632;12.428;2022-12-11T04:23:14;20.97;;;16.57;;
55222;SDS011;41090;48.632;12.428;2022-12-11T04:26:05;24.10;;;16.77;;
55222;SDS011;41090;48.632;12.428;2022-12-11T04:28:31;23.53;;;17.43;;
55222;SDS011;41090;48.632;12.428;2022-12-11T04:30:56;23.13;;;17.30;;
55222;SDS011;41090;48.632;12.428;2022-12-11T04:33:21;22.77;;;17.07;;
55222;SDS011;41090;48.632;12.428;2022-12-11T04:35:46;23.17;;;16.53;;
55222;SDS011;41090;48.632;12.428;2022-12-11T04:38:12;21.97;;;17.27;;
55222;SDS011;41090;48.632;12.428;2022-12-11T04:40:37;23.03;;;17.17;;
55222;SDS011;41090;48.632;12.428;2022-12-11T04:43:02;22.40;;;16.53;;
55222;SDS011;41090;48.632;12.428;2022-12-11T04:45:27;24.60;;;17.50;;
55222;SDS011;41090;48.632;12.428;2022-12-11T04:47:53;21.17;;;16.73;;
55222;SDS011;41090;48.632;12.428;2022-12-11T04:50:18;23.40;;;17.50;;
55222;SDS011;41090;48.632;12.428;2022-12-11T04:52:43;26.87;;;17.90;;
55222;SDS011;41090;48.632;12.428;2022-12-11T04:55:08;24.93;;;17.63;;
55222;SDS011;41090;48.632;12.428;2022-12-11T04:57:34;26.33;;;18.20;;
55222;SDS011;41090;48.632;12.428;2022-12-11T04:59:59;26.40;;;18.27;;
55222;SDS011;41090;48.632;12.428;2022-12-11T05:02:25;24.33;;;18.70;;
55222;SDS011;41090;48.632;12.428;2022-12-11T05:04:50;25.47;;;18.30;;
55222;SDS011;41090;48.632;12.428;2022-12-11T05:07:16;25.00;;;18.20;;
55222;SDS011;41090;48.632;12.428;2022-12-11T05:09:41;26.87;;;18.60;;
55222;SDS011;41090;48.632;12.428;2022-12-11T05:12:06;26.57;;;19.53;;
55222;SDS011;41090;48.632;12.428;2022-12-11T05:14:31;25.97;;;18.77;;
55222;SDS011;41090;48.632;12.428;2022-12-11T05:16:57;26.50;;;18.97;;
55222;SDS011;41090;48.632;12.428;2022-12-11T05:19:23;25.53;;;18.63;;
55222;SDS011;41090;48.632;12.428;2022-12-11T05:21:48;27.83;;;19.13;;
55222;SDS011;41090;48.632;12.428;2022-12-11T05:24:13;28.30;;;19.27;;
55222;SDS011;41090;48.632;12.428;2022-12-11T05:26:39;28.23;;;20.03;;
55222;SDS011;41090;48.632;12.428;2022-12-11T05:29:04;29.70;;;21.07;;
55222;SDS011;41090;48.632;12.428;2022-12-11T05:31:29;26.90;;;19.90;;
55222;SDS011;41090;48.632;12.428;2022-12-11T05:33:54;26.47;;;19.67;;
55222;SDS011;41090;48.632;12.428;2022-12-11T05:36:24;30.37;;;20.93;;
55222;SDS011;41090;48.632;12.428;2022-12-11T05:38:50;29.13;;;20.30;;
55222;SDS011;41090;48.632;12.428;2022-12-11T05:41:17;29.20;;;21.43;;
55222;SDS011;41090;48.632;12.428;2022-12-11T05:43:43;28.10;;;20.83;;
55222;SDS011;41090;48.632;12.428;2022-12-11T05:46:09;28.47;;;20.30;;
55222;SDS011;41090;48.632;12.428;2022-12-11T05:48:35;30.03;;;21.93;;
55222;SDS011;41090;48.632;12.428;2022-12-11T05:51:01;27.73;;;20.80;;
55222;SDS011;41090;48.632;12.428;2022-12-11T05:53:26;29.67;;;21.17;;
55222;SDS011;41090;48.632;12.428;2022-12-11T05:55:51;29.83;;;21.60;;
55222;SDS011;41090;48.632;12.428;2022-12-11T05:58:17;31.17;;;22.13;;
55222;SDS011;41090;48.632;12.428;2022-12-11T06:00:42;29.63;;;21.07;;
55222;SDS011;41090;48.632;12.428;2022-12-11T06:03:08;31.57;;;22.23;;
55222;SDS011;41090;48.632;12.428;2022-12-11T06:05:37;32.57;;;22.40;;
55222;SDS011;41090;48.632;12.428;2022-12-11T06:08:02;31.03;;;22.17;;
55222;SDS011;41090;48.632;12.428;2022-12-11T06:10:27;30.27;;;21.97;;
55222;SDS011;41090;48.632;12.428;2022-12-11T06:12:52;29.60;;;21.97;;
55222;SDS011;41090;48.632;12.428;2022-12-11T06:15:17;30.73;;;22.03;;
55222;SDS011;41090;48.632;12.428;2022-12-11T06:17:43;30.40;;;22.40;;
55222;SDS011;41090;48.632;12.428;2022-12-11T06:20:08;32.73;;;22.73;;
55222;SDS011;41090;48.632;12.428;2022-12-11T06:22:33;31.90;;;23.37;;
55222;SDS011;41090;48.632;12.428;2022-12-11T06:24:59;33.80;;;24.07;;
55222;SDS011;41090;48.632;12.428;2022-12-11T06:27:24;34.07;;;24.23;;
55222;SDS011;41090;48.632;12.428;2022-12-11T06:29:49;32.57;;;23.30;;
55222;SDS011;41090;48.632;12.428;2022-12-11T06:32:15;33.33;;;23.70;;
55222;SDS011;41090;48.632;12.428;2022-12-11T06:34:40;42.27;;;28.80;;
55222;SDS011;41090;48.632;12.428;2022-12-11T06:37:06;62.07;;;39.93;;
55222;SDS011;41090;48.632;12.428;2022-12-11T06:39:31;90.23;;;51.80;;
55222;SDS011;41090;48.632;12.428;2022-12-11T06:41:57;69.83;;;41.77;;
55222;SDS011;41090;48.632;12.428;2022-12-11T06:44:22;71.10;;;44.60;;
55222;SDS011;41090;48.632;12.428;2022-12-11T06:46:48;65.80;;;38.97;;
55222;SDS011;41090;48.632;12.428;2022-12-11T06:49:14;56.17;;;37.10;;
55222;SDS011;41090;48.632;12.428;2022-12-11T06:51:39;107.97;;;51.77;;
55222;SDS011;41090;48.632;12.428;2022-12-11T06:54:04;78.70;;;45.80;;
55222;SDS011;41090;48.632;12.428;2022-12-11T06:56:29;54.43;;;38.30;;
55222;SDS011;41090;48.632;12.428;2022-12-11T06:58:55;44.33;;;32.97;;
55222;SDS011;41090;48.632;12.428;2022-12-11T07:01:25;48.73;;;34.27;;
55222;SDS011;41090;48.632;12.428;2022-12-11T07:03:54;44.97;;;33.23;;
55222;SDS011;41090;48.632;12.428;2022-12-11T07:06:19;46.97;;;35.00;;
55222;SDS011;41090;48.632;12.428;2022-12-11T07:08:45;43.23;;;32.00;;
55222;SDS011;41090;48.632;12.428;2022-12-11T07:11:11;37.87;;;27.20;;
55222;SDS011;41090;48.632;12.428;2022-12-11T07:13:37;42.23;;;31.87;;
55222;SDS011;41090;48.632;12.428;2022-12-11T07:16:03;45.80;;;35.83;;
55222;SDS011;41090;48.632;12.428;2022-12-11T07:18:33;40.43;;;31.20;;
55222;SDS011;41090;48.632;12.428;2022-12-11T07:20:59;84.67;;;56.70;;
55222;SDS011;41090;48.632;12.428;2022-12-11T07:23:25;73.33;;;47.67;;
55222;SDS011;41090;48.632;12.428;2022-12-11T07:25:50;100.27;;;62.20;;
55222;SDS011;41090;48.632;12.428;2022-12-11T07:28:15;53.20;;;38.27;;
55222;SDS011;41090;48.632;12.428;2022-12-11T07:30:40;35.80;;;26.40;;
55222;SDS011;41090;48.632;12.428;2022-12-11T07:33:07;31.13;;;24.77;;
55222;SDS011;41090;48.632;12.428;2022-12-11T07:35:35;29.90;;;23.60;;
55222;SDS011;41090;48.632;12.428;2022-12-11T07:38:00;29.83;;;22.80;;
55222;SDS011;41090;48.632;12.428;2022-12-11T07:40:25;63.97;;;41.70;;
55222;SDS011;41090;48.632;12.428;2022-12-11T07:42:51;31.27;;;24.80;;
55222;SDS011;41090;48.632;12.428;2022-12-11T07:45:16;27.03;;;21.50;;
55222;SDS011;41090;48.632;12.428;2022-12-11T07:47:41;29.40;;;23.17;;
55222;SDS011;41090;48.632;12.428;2022-12-11T07:50:07;30.50;;;23.03;;
55222;SDS011;41090;48.632;12.428;2022-12-11T07:52:33;36.30;;;26.87;;
55222;SDS011;41090;48.632;12.428;2022-12-11T07:54:58;41.57;;;27.87;;
55222;SDS011;41090;48.632;12.428;2022-12-11T07:57:23;31.07;;;22.53;;
55222;SDS011;41090;48.632;12.428;2022-12-11T07:59:48;47.53;;;31.63;;
55222;SDS011;41090;48.632;12.428;2022-12-11T08:02:14;53.73;;;36.90;;
55222;SDS011;41090;48.632;12.428;2022-12-11T08:04:39;34.90;;;26.07;;
55222;SDS011;41090;48.632;12.428;2022-12-11T08:07:05;30.37;;;22.93;;
55222;SDS011;41090;48.632;12.428;2022-12-11T08:09:30;53.43;;;38.57;;
55222;SDS011;41090;48.632;12.428;2022-12-11T08:11:55;43.30;;;29.97;;
55222;SDS011;41090;48.632;12.428;2022-12-11T08:14:20;35.47;;;26.53;;
55222;SDS011;41090;48.632;12.428;2022-12-11T08:16:46;23.37;;;19.23;;
55222;SDS011;41090;48.632;12.428;2022-12-11T08:19:11;27.00;;;20.57;;
55222;SDS011;41090;48.632;12.428;2022-12-11T08:21:37;48.03;;;36.87;;
55222;SDS011;41090;48.632;12.428;2022-12-11T08:24:03;26.53;;;20.90;;
55222;SDS011;41090;48.632;12.428;2022-12-11T08:26:29;39.80;;;30.77;;
55222;SDS011;41090;48.632;12.428;2022-12-11T08:28:55;39.40;;;29.60;;
55222;SDS011;41090;48.632;12.428;2022-12-11T08:31:21;33.43;;;26.30;;
55222;SDS011;41090;48.632;12.428;2022-12-11T08:33:46;24.97;;;20.40;;
55222;SDS011;41090;48.632;12.428;2022-12-11T08:36:13;25.70;;;20.57;;
55222;SDS011;41090;48.632;12.428;2022-12-11T08:38:38;23.43;;;19.03;;
55222;SDS011;41090;48.632;12.428;2022-12-11T08:41:11;23.43;;;19.40;;
55222;SDS011;41090;48.632;12.428;2022-12-11T08:43:36;21.43;;;16.97;;
55222;SDS011;41090;48.632;12.428;2022-12-11T08:46:03;24.63;;;20.07;;
55222;SDS011;41090;48.632;12.428;2022-12-11T08:48:28;21.33;;;18.10;;
55222;SDS011;41090;48.632;12.428;2022-12-11T08:50:53;24.10;;;20.37;;
55222;SDS011;41090;48.632;12.428;2022-12-11T08:53:19;23.53;;;20.80;;
55222;SDS011;41090;48.632;12.428;2022-12-11T08:55:44;20.30;;;16.57;;
55222;SDS011;41090;48.632;12.428;2022-12-11T08:58:09;19.50;;;16.23;;
55222;SDS011;41090;48.632;12.428;2022-12-11T09:00:34;18.07;;;15.30;;
55222;SDS011;41090;48.632;12.428;2022-12-11T09:03:00;22.97;;;17.97;;
55222;SDS011;41090;48.632;12.428;2022-12-11T09:05:25;28.00;;;21.23;;
55222;SDS011;41090;48.632;12.428;2022-12-11T09:07:50;24.80;;;20.27;;
55222;SDS011;41090;48.632;12.428;2022-12-11T09:10:17;20.77;;;16.50;;
55222;SDS011;41090;48.632;12.428;2022-12-11T09:12:42;19.90;;;17.13;;
55222;SDS011;41090;48.632;12.428;2022-12-11T09:15:08;21.53;;;18.27;;
55222;SDS011;41090;48.632;12.428;2022-12-11T09:17:33;28.43;;;22.87;;
55222;SDS011;41090;48.632;12.428;2022-12-11T09:19:58;37.53;;;27.63;;
55222;SDS011;41090;48.632;12.428;2022-12-11T09:22:24;29.50;;;20.87;;
55222;SDS011;41090;48.632;12.428;2022-12-11T09:24:49;38.33;;;27.03;;
55222;SDS011;41090;48.632;12.428;2022-12-11T09:27:14;23.83;;;18.60;;
55222;SDS011;41090;48.632;12.428;2022-12-11T09:29:39;20.90;;;17.20;;
55222;SDS011;41090;48.632;12.428;2022-12-11T09:32:05;21.20;;;16.97;;
55222;SDS011;41090;48.632;12.428;2022-12-11T09:34:30;22.30;;;18.77;;
55222;SDS011;41090;48.632;12.428;2022-12-11T09:36:57;51.90;;;36.60;;
55222;SDS011;41090;48.632;12.428;2022-12-11T09:39:22;27.27;;;21.10;;
55222;SDS011;41090;48.632;12.428;2022-12-11T09:46:58;23.77;;;18.93;;
55222;SDS011;41090;48.632;12.428;2022-12-11T09:49:34;18.33;;;15.77;;
55222;SDS011;41090;48.632;12.428;2022-12-11T09:54:49;20.07;;;17.07;;
55222;SDS011;41090;48.632;12.428;2022-12-11T09:59:47;26.53;;;19.50;;
55222;SDS011;41090;48.632;12.428;2022-12-11T10:17:19;17.37;;;14.63;;
55222;SDS011;41090;48.632;12.428;2022-12-11T10:19:45;18.13;;;15.00;;
55222;SDS011;41090;48.632;12.428;2022-12-11T10:22:16;16.97;;;14.07;;
55222;SDS011;41090;48.632;12.428;2022-12-11T10:24:50;17.27;;;14.50;;
55222;SDS011;41090;48.632;12.428;2022-12-11T10:27:20;17.47;;;14.10;;
55222;SDS011;41090;48.632;12.428;2022-12-11T10:32:50;14.63;;;12.43;;
55222;SDS011;41090;48.632;12.428;2022-12-11T10:37:54;18.67;;;14.30;;
55222;SDS011;41090;48.632;12.428;2022-12-11T10:40:20;15.40;;;12.97;;
55222;SDS011;41090;48.632;12.428;2022-12-11T10:42:50;20.10;;;15.17;;
55222;SDS011;41090;48.632;12.428;2022-12-11T10:45:17;17.57;;;14.00;;
55222;SDS011;41090;48.632;12.428;2022-12-11T10:47:43;19.73;;;14.53;;
55222;SDS011;41090;48.632;12.428;2022-12-11T10:50:20;17.97;;;14.90;;
55222;SDS011;41090;48.632;12.428;2022-12-11T10:52:45;18.00;;;15.30;;
55222;SDS011;41090;48.632;12.428;2022-12-11T10:57:42;18.00;;;14.93;;
55222;SDS011;41090;48.632;12.428;2022-12-11T11:00:25;18.17;;;14.97;;
55222;SDS011;41090;48.632;12.428;2022-12-11T11:02:52;17.53;;;14.90;;
55222;SDS011;41090;48.632;12.428;2022-12-11T11:05:32;19.17;;;15.67;;
55222;SDS011;41090;48.632;12.428;2022-12-11T11:10:53;18.20;;;14.30;;
55222;SDS011;41090;48.632;12.428;2022-12-11T11:13:21;18.43;;;15.27;;
55222;SDS011;41090;48.632;12.428;2022-12-11T11:15:47;17.40;;;14.17;;
55222;SDS011;41090;48.632;12.428;2022-12-11T11:18:19;16.70;;;14.10;;
55222;SDS011;41090;48.632;12.428;2022-12-11T11:20:47;18.20;;;14.63;;
55222;SDS011;41090;48.632;12.428;2022-12-11T11:23:13;18.73;;;14.63;;
55222;SDS011;41090;48.632;12.428;2022-12-11T11:25:43;21.23;;;17.00;;
55222;SDS011;41090;48.632;12.428;2022-12-11T11:28:26;21.90;;;16.93;;
55222;SDS011;41090;48.632;12.428;2022-12-11T11:30:56;98.03;;;55.57;;
55222;SDS011;41090;48.632;12.428;2022-12-11T11:33:22;43.60;;;26.83;;
55222;SDS011;41090;48.632;12.428;2022-12-11T11:35:52;71.90;;;42.23;;
55222;SDS011;41090;48.632;12.428;2022-12-11T11:38:18;94.07;;;53.73;;
55222;SDS011;41090;48.632;12.428;2022-12-11T11:43:18;48.53;;;32.17;;
55222;SDS011;41090;48.632;12.428;2022-12-11T11:45:52;79.43;;;52.13;;
55222;SDS011;41090;48.632;12.428;2022-12-11T11:51:15;14.90;;;12.57;;
55222;SDS011;41090;48.632;12.428;2022-12-11T11:53:40;21.33;;;19.03;;
55222;SDS011;41090;48.632;12.428;2022-12-11T12:01:21;13.90;;;11.93;;
55222;SDS011;41090;48.632;12.428;2022-12-11T12:03:47;14.77;;;12.17;;
55222;SDS011;41090;48.632;12.428;2022-12-11T12:09:14;14.90;;;12.47;;
55222;SDS011;41090;48.632;12.428;2022-12-11T12:14:17;17.27;;;13.53;;
55222;SDS011;41090;48.632;12.428;2022-12-11T12:21:46;16.00;;;13.17;;
55222;SDS011;41090;48.632;12.428;2022-12-11T12:26:48;18.73;;;13.77;;
55222;SDS011;41090;48.632;12.428;2022-12-11T12:29:25;16.43;;;13.33;;
55222;SDS011;41090;48.632;12.428;2022-12-11T12:42:10;18.37;;;13.33;;
55222;SDS011;41090;48.632;12.428;2022-12-11T12:45:00;16.20;;;13.33;;
55222;SDS011;41090;48.632;12.428;2022-12-11T12:47:29;17.30;;;12.63;;
55222;SDS011;41090;48.632;12.428;2022-12-11T12:49:54;14.60;;;11.53;;
55222;SDS011;41090;48.632;12.428;2022-12-11T12:52:25;13.90;;;11.73;;
55222;SDS011;41090;48.632;12.428;2022-12-11T12:54:53;17.60;;;13.40;;
55222;SDS011;41090;48.632;12.428;2022-12-11T12:57:38;19.83;;;14.13;;
55222;SDS011;41090;48.632;12.428;2022-12-11T13:00:06;22.40;;;14.50;;
55222;SDS011;41090;48.632;12.428;2022-12-11T13:02:32;17.67;;;12.93;;
55222;SDS011;41090;48.632;12.428;2022-12-11T13:04:59;18.10;;;14.00;;
55222;SDS011;41090;48.632;12.428;2022-12-11T13:07:28;14.63;;;12.27;;
55222;SDS011;41090;48.632;12.428;2022-12-11T13:10:20;14.17;;;12.63;;
55222;SDS011;41090;48.632;12.428;2022-12-11T13:12:47;14.00;;;11.43;;
55222;SDS011;41090;48.632;12.428;2022-12-11T13:17:50;13.77;;;12.03;;
55222;SDS011;41090;48.632;12.428;2022-12-11T13:20:16;14.37;;;12.10;;
55222;SDS011;41090;48.632;12.428;2022-12-11T13:22:46;14.67;;;12.27;;
55222;SDS011;41090;48.632;12.428;2022-12-11T13:25:30;14.90;;;12.33;;
55222;SDS011;41090;48.632;12.428;2022-12-11T13:28:06;15.80;;;13.07;;
55222;SDS011;41090;48.632;12.428;2022-12-11T13:30:32;14.53;;;12.73;;
55222;SDS011;41090;48.632;12.428;2022-12-11T13:33:36;16.13;;;12.90;;
55222;SDS011;41090;48.632;12.428;2022-12-11T13:36:35;18.13;;;15.13;;
55222;SDS011;41090;48.632;12.428;2022-12-11T13:38:45;21.03;;;17.93;;
55222;SDS011;41090;48.632;12.428;2022-12-11T13:41:11;24.30;;;18.73;;
55222;SDS011;41090;48.632;12.428;2022-12-11T13:43:37;94.17;;;74.30;;
55222;SDS011;41090;48.632;12.428;2022-12-11T13:46:04;68.03;;;53.70;;
55222;SDS011;41090;48.632;12.428;2022-12-11T13:48:38;22.33;;;18.53;;
55222;SDS011;41090;48.632;12.428;2022-12-11T13:51:05;32.90;;;26.23;;
55222;SDS011;41090;48.632;12.428;2022-12-11T13:53:30;33.00;;;29.50;;
55222;SDS011;41090;48.632;12.428;2022-12-11T13:56:00;17.40;;;15.33;;
55222;SDS011;41090;48.632;12.428;2022-12-11T13:58:26;19.53;;;17.30;;
55222;SDS011;41090;48.632;12.428;2022-12-11T14:00:56;20.37;;;17.13;;
55222;SDS011;41090;48.632;12.428;2022-12-11T14:03:23;22.73;;;19.43;;
55222;SDS011;41090;48.632;12.428;2022-12-11T14:05:48;22.23;;;19.37;;
55222;SDS011;41090;48.632;12.428;2022-12-11T14:08:16;18.23;;;15.03;;
55222;SDS011;41090;48.632;12.428;2022-12-11T14:10:44;19.33;;;14.90;;
55222;SDS011;41090;48.632;12.428;2022-12-11T14:13:17;17.57;;;14.40;;
55222;SDS011;41090;48.632;12.428;2022-12-11T14:15:45;53.33;;;33.60;;
55222;SDS011;41090;48.632;12.428;2022-12-11T14:18:14;49.90;;;32.03;;
55222;SDS011;41090;48.632;12.428;2022-12-11T14:20:42;100.20;;;53.37;;
55222;SDS011;41090;48.632;12.428;2022-12-11T14:23:14;56.63;;;33.97;;
55222;SDS011;41090;48.632;12.428;2022-12-11T14:25:40;51.33;;;33.13;;
55222;SDS011;41090;48.632;12.428;2022-12-11T14:28:12;73.63;;;34.73;;
55222;SDS011;41090;48.632;12.428;2022-12-11T14:30:41;27.10;;;18.77;;
55222;SDS011;41090;48.632;12.428;2022-12-11T14:33:08;19.73;;;15.27;;
55222;SDS011;41090;48.632;12.428;2022-12-11T14:35:35;16.17;;;14.07;;
55222;SDS011;41090;48.632;12.428;2022-12-11T14:38:03;15.83;;;12.33;;
55222;SDS011;41090;48.632;12.428;2022-12-11T14:40:37;16.17;;;14.43;;
55222;SDS011;41090;48.632;12.428;2022-12-11T14:43:13;13.93;;;12.13;;
55222;SDS011;41090;48.632;12.428;2022-12-11T14:45:43;15.10;;;13.00;;
55222;SDS011;41090;48.632;12.428;2022-12-11T14:48:12;13.57;;;12.07;;
55222;SDS011;41090;48.632;12.428;2022-12-11T14:50:40;19.27;;;17.23;;
55222;SDS011;41090;48.632;12.428;2022-12-11T14:53:53;28.33;;;25.00;;
55222;SDS011;41090;48.632;12.428;2022-12-11T14:56:01;18.83;;;16.83;;
55222;SDS011;41090;48.632;12.428;2022-12-11T14:58:27;24.73;;;22.13;;
55222;SDS011;41090;48.632;12.428;2022-12-11T15:01:00;27.43;;;24.50;;
55222;SDS011;41090;48.632;12.428;2022-12-11T15:03:38;19.70;;;17.60;;
55222;SDS011;41090;48.632;12.428;2022-12-11T15:06:20;17.37;;;15.67;;
55222;SDS011;41090;48.632;12.428;2022-12-11T15:08:46;11.50;;;9.73;;
55222;SDS011;41090;48.632;12.428;2022-12-11T15:11:15;13.40;;;11.10;;
55222;SDS011;41090;48.632;12.428;2022-12-11T15:13:54;14.77;;;13.17;;
55222;SDS011;41090;48.632;12.428;2022-12-11T15:16:20;19.27;;;15.20;;
55222;SDS011;41090;48.632;12.428;2022-12-11T15:18:49;24.73;;;18.87;;
55222;SDS011;41090;48.632;12.428;2022-12-11T15:21:16;21.90;;;15.83;;
55222;SDS011;41090;48.632;12.428;2022-12-11T15:26:10;18.17;;;13.23;;
55222;SDS011;41090;48.632;12.428;2022-12-11T15:28:36;16.60;;;13.60;;
55222;SDS011;41090;48.632;12.428;2022-12-11T15:31:04;31.53;;;22.00;;
55222;SDS011;41090;48.632;12.428;2022-12-11T15:33:29;19.90;;;16.63;;
55222;SDS011;41090;48.632;12.428;2022-12-11T15:35:56;14.83;;;13.20;;
55222;SDS011;41090;48.632;12.428;2022-12-11T15:38:54;15.37;;;13.67;;
55222;SDS011;41090;48.632;12.428;2022-12-11T15:41:16;17.23;;;13.50;;
55222;SDS011;41090;48.632;12.428;2022-12-11T15:43:45;14.07;;;11.77;;